Terminal Aerodrome Forecast
Issued by NWS New Orleans/Baton Rouge, LA

Home | Current Version | Previous Version | Text Only | Print | Product List | Glossary On
Versions: 1 2 3 4 5 6 7 8 9 10 11 12 13 14 15 16
000
FTUS44 KLIX 240500
TAFBTR
TAF
KBTR 240520Z 2406/2506 19004KT P6SM SKC
     FM241000 00000KT P6SM SCT015
      TEMPO 2410/2413 4SM BR
     FM241400 18008KT P6SM SCT035
     FM250100 19007KT P6SM SCT250=

USA.gov is the U.S. government's official web portal to all federal, state and local government web resources and services.